createdAt,value
2018-03-19T00:01:04.016Z,15.00
2018-03-19T00:03:32.210Z,15.60
2018-03-19T00:06:01.041Z,14.90
2018-03-19T00:08:29.915Z,14.37
2018-03-19T00:10:57.759Z,15.50
2018-03-19T00:13:25.690Z,16.70
2018-03-19T00:15:54.063Z,15.60
2018-03-19T00:18:22.604Z,15.43
2018-03-19T00:20:51.393Z,15.23
2018-03-19T00:23:19.503Z,14.93
2018-03-19T00:25:47.415Z,14.70
2018-03-19T00:28:15.372Z,13.40
2018-03-19T00:30:43.398Z,13.53
2018-03-19T00:33:11.221Z,14.43
2018-03-19T00:35:39.556Z,15.57
2018-03-19T00:38:08.521Z,14.67
2018-03-19T00:40:36.830Z,13.70
2018-03-19T00:43:04.803Z,14.07
2018-03-19T00:45:32.855Z,13.67
2018-03-19T00:48:01.928Z,12.73
2018-03-19T00:50:30.121Z,13.53
2018-03-19T00:52:58.039Z,12.80
2018-03-19T00:55:25.949Z,13.23
2018-03-19T00:57:53.898Z,13.50
2018-03-19T01:00:21.647Z,13.20
2018-03-19T01:02:49.650Z,12.27
2018-03-19T01:05:18.225Z,12.43
2018-03-19T01:07:45.895Z,11.60
2018-03-19T01:10:13.958Z,12.23
2018-03-19T01:12:43.076Z,11.30
2018-03-19T01:15:11.320Z,12.50
2018-03-19T01:17:40.160Z,11.30
2018-03-19T01:20:08.201Z,10.50
2018-03-19T01:22:37.006Z,10.87
2018-03-19T01:25:05.433Z,11.30
2018-03-19T01:27:33.507Z,10.90
2018-03-19T01:30:01.450Z,10.07
2018-03-19T01:32:29.590Z,10.77
2018-03-19T01:34:58.282Z,9.60
2018-03-19T01:37:26.273Z,11.00
2018-03-19T01:39:54.014Z,9.00
2018-03-19T01:42:21.837Z,9.90
2018-03-19T01:44:49.593Z,10.07
2018-03-19T01:47:18.117Z,8.70
2018-03-19T01:49:46.261Z,9.97
2018-03-19T01:52:14.253Z,8.53
2018-03-19T01:54:43.292Z,8.77
2018-03-19T01:57:11.314Z,9.10
2018-03-19T01:59:39.150Z,9.63
2018-03-19T02:02:07.671Z,9.47
2018-03-19T02:04:35.599Z,8.30
2018-03-19T02:07:03.440Z,9.17
2018-03-19T02:09:31.415Z,8.20
2018-03-19T02:12:00.424Z,7.60
2018-03-19T02:14:28.117Z,7.30
2018-03-19T02:16:56.580Z,7.93
2018-03-19T02:19:24.268Z,7.90
2018-03-19T02:21:52.041Z,7.43
2018-03-19T02:24:19.809Z,6.53
2018-03-19T02:26:47.593Z,6.60
2018-03-19T02:29:15.201Z,7.23
2018-03-19T02:31:43.509Z,7.40
2018-03-19T02:34:12.004Z,7.57
2018-03-19T02:36:39.725Z,6.80
2018-03-19T02:39:07.905Z,6.43
2018-03-19T02:41:36.561Z,6.63
2018-03-19T02:44:04.703Z,6.27
2018-03-19T02:46:32.645Z,6.60
2018-03-19T02:49:00.472Z,5.83
2018-03-19T02:51:28.442Z,6.60
2018-03-19T02:53:56.306Z,6.40
2018-03-19T02:56:24.069Z,6.30
2018-03-19T02:58:52.121Z,6.33
2018-03-19T03:01:20.556Z,5.70
2018-03-19T03:03:49.197Z,6.07
2018-03-19T03:06:17.525Z,6.17
2018-03-19T03:08:45.548Z,5.40
2018-03-19T03:11:13.222Z,5.90
2018-03-19T03:13:41.390Z,5.40
2018-03-19T03:16:10.526Z,6.10
2018-03-19T03:18:38.564Z,5.80
2018-03-19T03:21:07.110Z,5.13
2018-03-19T03:23:34.906Z,5.23
2018-03-19T03:26:03.541Z,5.40
2018-03-19T03:28:32.208Z,5.33
2018-03-19T03:31:00.631Z,5.30
2018-03-19T03:33:28.462Z,5.40
2018-03-19T03:35:56.882Z,5.93
2018-03-19T03:38:25.692Z,5.77
2018-03-19T03:40:53.737Z,4.97
2018-03-19T03:43:21.611Z,5.50
2018-03-19T03:45:49.755Z,5.40
2018-03-19T03:48:18.708Z,5.47
2018-03-19T03:50:46.558Z,3.80
2018-03-19T03:53:14.427Z,4.63
2018-03-19T03:55:42.179Z,5.40
2018-03-19T03:58:10.217Z,4.30
2018-03-19T04:00:38.228Z,5.63
2018-03-19T04:03:06.704Z,4.40
2018-03-19T04:05:35.240Z,4.07
2018-03-19T04:08:03.152Z,4.57
2018-03-19T04:10:31.675Z,4.60
2018-03-19T04:12:59.373Z,4.97
2018-03-19T04:15:27.335Z,4.37
2018-03-19T04:17:56.157Z,4.17
2018-03-19T04:20:24.391Z,4.17
2018-03-19T04:22:52.184Z,3.30
2018-03-19T04:25:20.529Z,4.93
2018-03-19T04:27:48.635Z,3.87
2018-03-19T04:30:16.701Z,3.40
2018-03-19T04:32:45.050Z,4.27
2018-03-19T04:35:12.956Z,3.87
2018-03-19T04:37:41.065Z,3.40
2018-03-19T04:40:09.531Z,4.37
2018-03-19T04:42:37.195Z,3.47
2018-03-19T04:45:05.192Z,3.40
2018-03-19T04:47:33.470Z,3.73
2018-03-19T04:50:01.536Z,3.40
2018-03-19T04:52:29.769Z,3.70
2018-03-19T04:54:58.026Z,4.07
2018-03-19T04:57:26.032Z,3.57
2018-03-19T04:59:55.458Z,3.53
2018-03-19T05:02:23.133Z,3.60
2018-03-19T05:04:50.750Z,3.70
2018-03-19T05:07:18.461Z,3.07
2018-03-19T05:09:46.624Z,3.67
2018-03-19T05:12:14.424Z,4.13
2018-03-19T05:14:42.875Z,3.57
2018-03-19T05:17:11.890Z,3.03
2018-03-19T05:19:39.963Z,3.43
2018-03-19T05:22:07.987Z,3.30
2018-03-19T05:24:36.547Z,3.30
2018-03-19T05:27:04.784Z,3.40
2018-03-19T05:29:33.347Z,4.27
2018-03-19T05:32:02.231Z,2.83
2018-03-19T05:34:29.890Z,3.07
2018-03-19T05:36:57.562Z,3.60
2018-03-19T05:39:25.401Z,2.97
2018-03-19T05:41:53.935Z,3.30
2018-03-19T05:44:21.739Z,3.13
2018-03-19T05:46:49.483Z,3.33
2018-03-19T05:49:17.268Z,3.53
2018-03-19T05:51:45.129Z,3.17
2018-03-19T05:54:12.897Z,3.20
2018-03-19T05:56:40.823Z,2.63
2018-03-19T05:59:09.605Z,3.23
2018-03-19T06:01:37.552Z,3.37
2018-03-19T06:04:05.279Z,3.43
2018-03-19T06:06:32.987Z,3.20
2018-03-19T06:09:01.840Z,3.00
2018-03-19T06:11:30.255Z,2.90
2018-03-19T06:13:58.827Z,2.90
2018-03-19T06:16:27.004Z,3.10
2018-03-19T06:18:56.000Z,3.03
2018-03-19T06:21:23.733Z,2.83
2018-03-19T06:23:51.550Z,3.20
2018-03-19T06:26:19.418Z,3.10
2018-03-19T06:28:47.503Z,2.80
2018-03-19T06:31:16.395Z,2.47
2018-03-19T06:33:44.192Z,2.50
2018-03-19T06:36:12.069Z,2.90
2018-03-19T06:38:40.236Z,2.60
2018-03-19T06:41:09.184Z,2.70
2018-03-19T06:43:37.461Z,2.60
2018-03-19T06:46:05.511Z,3.10
2018-03-19T06:48:34.670Z,2.87
2018-03-19T06:51:02.899Z,3.27
2018-03-19T06:53:30.695Z,3.17
2018-03-19T06:55:59.787Z,2.50
2018-03-19T06:58:28.723Z,2.73
2018-03-19T07:00:57.405Z,2.50
2018-03-19T07:03:25.833Z,2.77
2018-03-19T07:05:53.841Z,2.90
2018-03-19T07:08:23.031Z,2.73
2018-03-19T07:10:50.908Z,2.40
2018-03-19T07:13:19.544Z,2.60
2018-03-19T07:15:47.278Z,2.30
2018-03-19T07:18:17.159Z,2.60
2018-03-19T07:20:45.040Z,2.90
2018-03-19T07:23:12.967Z,3.57
2018-03-19T07:25:40.928Z,3.27
2018-03-19T07:28:08.873Z,2.40
2018-03-19T07:30:36.698Z,3.00
2018-03-19T07:33:05.122Z,2.47
2018-03-19T07:35:32.898Z,2.17
2018-03-19T07:38:01.901Z,2.43
2018-03-19T07:40:29.921Z,2.57
2018-03-19T07:42:57.705Z,2.27
2018-03-19T07:45:25.593Z,1.93
2018-03-19T07:47:54.010Z,2.67
2018-03-19T07:50:21.968Z,2.17
2018-03-19T07:52:49.803Z,2.23
2018-03-19T07:55:18.624Z,1.80
2018-03-19T07:57:46.450Z,2.70
2018-03-19T08:00:14.126Z,1.93
2018-03-19T08:02:42.296Z,2.20
2018-03-19T08:05:10.185Z,2.50
2018-03-19T08:07:38.099Z,2.37
2018-03-19T08:10:06.563Z,2.37
2018-03-19T08:12:35.226Z,2.10
2018-03-19T08:15:03.019Z,2.23
2018-03-19T08:17:31.518Z,2.17
2018-03-19T08:19:59.277Z,2.57
2018-03-19T08:22:27.750Z,2.33
2018-03-19T08:24:55.584Z,2.10
2018-03-19T08:27:23.458Z,2.30
2018-03-19T08:29:51.099Z,2.63
2018-03-19T08:32:18.936Z,2.37
2018-03-19T08:34:46.703Z,2.20
2018-03-19T08:37:14.473Z,2.07
2018-03-19T08:39:42.595Z,2.30
2018-03-19T08:42:10.401Z,2.40
2018-03-19T08:44:38.135Z,2.33
2018-03-19T08:47:05.834Z,2.20
2018-03-19T08:49:33.545Z,2.20
2018-03-19T08:52:01.319Z,2.07
2018-03-19T08:54:30.104Z,2.07
2018-03-19T08:56:57.977Z,2.50
2018-03-19T08:59:25.706Z,2.13
2018-03-19T09:01:53.526Z,2.33
2018-03-19T09:04:21.582Z,1.93
2018-03-19T09:06:49.395Z,2.13
2018-03-19T09:09:17.550Z,2.00
2018-03-19T09:11:46.114Z,1.80
2018-03-19T09:14:13.736Z,2.03
2018-03-19T09:16:41.537Z,2.00
2018-03-19T09:19:09.460Z,2.30
2018-03-19T09:21:37.696Z,2.03
2018-03-19T09:24:05.582Z,2.17
2018-03-19T09:26:33.357Z,1.93
2018-03-19T09:29:01.128Z,1.93
2018-03-19T09:31:29.436Z,1.60
2018-03-19T09:33:57.240Z,1.70
2018-03-19T09:36:25.532Z,2.50
2018-03-19T09:38:53.911Z,2.07
2018-03-19T09:41:22.508Z,1.30
2018-03-19T09:43:51.365Z,1.87
2018-03-19T09:46:19.886Z,1.97
2018-03-19T09:48:47.623Z,2.07
2018-03-19T09:51:16.513Z,2.23
2018-03-19T09:53:44.477Z,2.30
2018-03-19T09:56:12.155Z,2.23
2018-03-19T09:58:40.212Z,2.20
2018-03-19T10:01:08.276Z,2.53
2018-03-19T10:03:36.293Z,2.50
2018-03-19T10:06:04.034Z,2.60
2018-03-19T10:08:31.757Z,2.40
2018-03-19T10:10:59.520Z,2.90
2018-03-19T10:13:27.315Z,2.60
2018-03-19T10:15:55.183Z,3.53
2018-03-19T10:18:23.163Z,2.70
2018-03-19T10:20:51.206Z,2.50
2018-03-19T10:23:19.794Z,3.30
2018-03-19T10:25:47.560Z,3.10
2018-03-19T10:28:17.616Z,3.00
2018-03-19T10:30:45.525Z,2.97
2018-03-19T10:33:13.220Z,3.03
2018-03-19T10:35:42.379Z,2.80
2018-03-19T10:38:10.150Z,3.00
2018-03-19T10:40:37.960Z,3.20
2018-03-19T10:43:06.330Z,2.60
2018-03-19T10:45:34.900Z,2.80
2018-03-19T10:48:03.817Z,2.90
2018-03-19T10:50:32.171Z,5.63
2018-03-19T10:53:00.370Z,7.03
2018-03-19T10:55:28.250Z,6.83
2018-03-19T10:57:56.201Z,7.10
2018-03-19T11:00:25.103Z,5.80
2018-03-19T11:02:52.995Z,6.50
2018-03-19T11:05:21.936Z,6.20
2018-03-19T11:07:49.881Z,6.30
2018-03-19T11:10:17.897Z,5.13
2018-03-19T11:12:46.555Z,6.40
2018-03-19T11:15:14.807Z,5.30
2018-03-19T11:17:42.644Z,5.37
2018-03-19T11:20:10.507Z,5.90
2018-03-19T11:22:39.038Z,6.07
2018-03-19T11:25:07.314Z,5.40
2018-03-19T11:27:35.132Z,5.70
2018-03-19T11:30:03.732Z,6.17
2018-03-19T11:32:31.572Z,6.50
2018-03-19T11:34:59.476Z,6.23
2018-03-19T11:37:28.046Z,5.70
2018-03-19T11:39:56.563Z,6.40
2018-03-19T11:42:24.459Z,5.60
2018-03-19T11:44:52.444Z,4.53
2018-03-19T11:47:20.431Z,4.90
2018-03-19T11:49:49.800Z,5.53
2018-03-19T11:52:17.849Z,4.60
2018-03-19T11:54:45.618Z,4.40
2018-03-19T11:57:14.222Z,5.70
2018-03-19T11:59:42.242Z,5.87
2018-03-19T12:02:10.820Z,5.07
2018-03-19T12:04:38.554Z,4.70
2018-03-19T12:07:07.104Z,5.77
2018-03-19T12:09:35.093Z,4.83
2018-03-19T12:12:03.888Z,6.43
2018-03-19T12:14:32.038Z,5.30
2018-03-19T12:17:01.010Z,5.23
2018-03-19T12:19:29.588Z,5.73
2018-03-19T12:21:57.309Z,4.90
2018-03-19T12:24:26.174Z,4.20
2018-03-19T12:26:54.856Z,4.53
2018-03-19T12:29:23.123Z,5.07
2018-03-19T12:31:50.986Z,4.40
2018-03-19T12:34:18.739Z,5.37
2018-03-19T12:36:46.934Z,4.30
2018-03-19T12:39:15.468Z,5.37
2018-03-19T12:41:44.082Z,4.40
2018-03-19T12:44:11.984Z,3.90
2018-03-19T12:46:39.663Z,4.20
2018-03-19T12:49:07.795Z,4.23
2018-03-19T12:51:36.303Z,5.60
2018-03-19T12:54:04.253Z,18.05
2018-03-19T12:56:32.520Z,14.23
2018-03-19T12:59:01.957Z,11.90
2018-03-19T13:01:30.766Z,6.67
2018-03-19T13:03:59.532Z,5.83
2018-03-19T13:06:28.255Z,6.10
2018-03-19T13:08:56.080Z,6.63
2018-03-19T13:11:23.867Z,44.80
2018-03-19T13:13:51.791Z,16.00
2018-03-19T13:16:19.441Z,15.10
2018-03-19T13:18:47.267Z,10.83
2018-03-19T13:21:15.304Z,8.90
2018-03-19T13:23:43.226Z,8.43
2018-03-19T13:26:11.542Z,10.13
2018-03-19T13:28:39.370Z,8.60
2018-03-19T13:31:07.187Z,8.60
2018-03-19T13:33:34.915Z,8.07
2018-03-19T13:36:02.954Z,8.30
2018-03-19T13:38:30.758Z,8.00
2018-03-19T13:40:58.912Z,7.77
2018-03-19T13:43:26.735Z,7.37
2018-03-19T13:45:54.550Z,6.53
2018-03-19T13:48:22.699Z,6.40
2018-03-19T13:50:50.558Z,5.90
2018-03-19T13:53:18.681Z,4.80
2018-03-19T13:55:46.809Z,5.57
2018-03-19T13:58:14.817Z,4.30
2018-03-19T14:00:42.645Z,4.60
2018-03-19T14:03:10.455Z,5.10
2018-03-19T14:05:38.460Z,4.70
2018-03-19T14:08:07.374Z,4.57
2018-03-19T14:10:36.325Z,4.13
2018-03-19T14:13:05.265Z,4.60
2018-03-19T14:15:33.824Z,4.60
2018-03-19T14:18:01.741Z,5.00
2018-03-19T14:20:29.737Z,4.10
2018-03-19T14:22:58.097Z,4.50
2018-03-19T14:25:26.662Z,4.43
2018-03-19T14:27:54.426Z,4.00
2018-03-19T14:30:22.258Z,4.10
2018-03-19T14:32:51.222Z,4.40
2018-03-19T14:35:18.958Z,3.90
2018-03-19T14:37:46.790Z,3.90
2018-03-19T14:40:14.514Z,4.67
2018-03-19T14:42:42.160Z,3.97
2018-03-19T14:45:10.250Z,4.17
2018-03-19T14:47:38.871Z,3.60
2018-03-19T14:50:08.047Z,3.73
2018-03-19T14:52:35.925Z,4.47
2018-03-19T14:55:04.894Z,3.40
2018-03-19T14:57:33.148Z,4.30
2018-03-19T15:00:01.313Z,3.63
2018-03-19T15:02:29.300Z,4.00
2018-03-19T15:04:58.118Z,4.50
2018-03-19T15:07:25.810Z,4.07
2018-03-19T15:09:54.047Z,4.27
2018-03-19T15:12:22.060Z,4.80
2018-03-19T15:14:49.674Z,4.20
2018-03-19T15:17:17.946Z,3.93
2018-03-19T15:19:45.794Z,4.00
2018-03-19T15:22:14.208Z,4.57
2018-03-19T15:24:43.682Z,4.93
2018-03-19T15:27:11.470Z,4.07
2018-03-19T15:29:39.189Z,4.20
2018-03-19T15:32:07.068Z,5.10
2018-03-19T15:34:35.224Z,4.47
2018-03-19T15:37:03.952Z,4.63
2018-03-19T15:39:31.818Z,4.00
2018-03-19T15:41:59.613Z,4.60
2018-03-19T15:44:27.376Z,4.87
2018-03-19T15:46:56.256Z,4.60
2018-03-19T15:49:23.918Z,4.70
2018-03-19T15:51:51.584Z,4.03
2018-03-19T15:54:19.391Z,4.73
2018-03-19T15:56:47.487Z,4.60
2018-03-19T15:59:15.349Z,4.40
2018-03-19T16:01:43.242Z,3.83
2018-03-19T16:04:10.983Z,4.33
2018-03-19T16:06:39.185Z,4.53
2018-03-19T16:09:08.020Z,5.67
2018-03-19T16:11:38.082Z,4.83
2018-03-19T16:14:05.849Z,5.00
2018-03-19T16:16:33.586Z,4.80
2018-03-19T16:19:01.347Z,4.53
2018-03-19T16:21:30.035Z,4.63
2018-03-19T16:23:58.010Z,4.73
2018-03-19T16:26:26.327Z,4.37
2018-03-19T16:28:54.305Z,5.63
2018-03-19T16:31:22.896Z,5.53
2018-03-19T16:33:50.531Z,4.13
2018-03-19T16:36:18.270Z,5.03
2018-03-19T16:38:45.967Z,4.50
2018-03-19T16:41:13.738Z,5.20
2018-03-19T16:43:41.608Z,4.97
2018-03-19T16:46:09.835Z,5.50
2018-03-19T16:48:37.819Z,5.10
2018-03-19T16:51:05.613Z,5.63
2018-03-19T16:53:33.267Z,6.43
2018-03-19T16:56:02.866Z,5.97
2018-03-19T16:58:30.903Z,6.37
2018-03-19T17:00:58.660Z,5.93
2018-03-19T17:03:27.420Z,5.90
2018-03-19T17:05:57.052Z,5.87
2018-03-19T17:08:24.838Z,5.50
2018-03-19T17:10:52.519Z,5.50
2018-03-19T17:13:20.260Z,5.90
2018-03-19T17:15:48.159Z,6.03
2018-03-19T17:18:16.817Z,6.10
2018-03-19T17:20:45.358Z,6.50
2018-03-19T17:23:13.914Z,6.67
2018-03-19T17:25:42.577Z,6.30
2018-03-19T17:28:10.512Z,5.60
2018-03-19T17:30:38.393Z,5.80
2018-03-19T17:33:06.834Z,6.30
2018-03-19T17:35:35.178Z,6.13
2018-03-19T17:38:04.043Z,6.60
2018-03-19T17:40:32.503Z,6.27
2018-03-19T17:43:00.207Z,7.20
2018-03-19T17:45:28.819Z,6.77
2018-03-19T17:47:56.711Z,6.77
2018-03-19T17:50:24.471Z,5.30
2018-03-19T17:52:52.427Z,6.47
2018-03-19T17:55:20.544Z,6.40
2018-03-19T17:57:49.046Z,6.50
2018-03-19T18:00:17.552Z,6.20
2018-03-19T18:02:45.629Z,7.23
2018-03-19T18:05:13.867Z,7.03
2018-03-19T18:07:41.774Z,6.70
2018-03-19T18:10:10.196Z,6.77
2018-03-19T18:12:38.765Z,7.73
2018-03-19T18:15:06.827Z,7.03
2018-03-19T18:17:34.665Z,6.53
2018-03-19T18:20:02.480Z,7.00
2018-03-19T18:22:30.637Z,6.50
2018-03-19T18:25:01.499Z,5.43
2018-03-19T18:27:29.987Z,7.00
2018-03-19T18:29:58.064Z,6.30
2018-03-19T18:32:25.757Z,6.43
2018-03-19T18:34:54.525Z,5.67
2018-03-19T18:37:22.374Z,6.13
2018-03-19T18:39:50.444Z,5.57
2018-03-19T18:42:19.536Z,5.30
2018-03-19T18:44:47.679Z,6.17
2018-03-19T18:47:15.553Z,5.00
2018-03-19T18:49:44.280Z,5.43
2018-03-19T18:52:11.974Z,5.97
2018-03-19T18:54:39.984Z,4.83
2018-03-19T18:57:08.009Z,5.53
2018-03-19T18:59:37.597Z,5.10
2018-03-19T19:02:06.181Z,5.43
2018-03-19T19:04:33.877Z,4.20
2018-03-19T19:07:02.556Z,4.70
2018-03-19T19:09:31.244Z,4.30
2018-03-19T19:11:59.234Z,4.07
2018-03-19T19:14:27.318Z,4.50
2018-03-19T19:16:55.248Z,4.57
2018-03-19T19:19:23.656Z,4.33
2018-03-19T19:21:52.020Z,4.27
2018-03-19T19:24:19.825Z,3.90
2018-03-19T19:26:48.208Z,3.97
2018-03-19T19:29:16.369Z,3.43
2018-03-19T19:31:44.113Z,3.57
2018-03-19T19:34:12.200Z,3.73
2018-03-19T19:36:39.893Z,3.33
2018-03-19T19:39:08.118Z,3.83
2018-03-19T19:41:35.929Z,3.27
2018-03-19T19:44:04.000Z,3.03
2018-03-19T19:46:32.029Z,3.70
2018-03-19T19:48:59.968Z,2.83
2018-03-19T19:51:27.891Z,2.80
2018-03-19T19:53:56.454Z,3.20
2018-03-19T19:56:24.452Z,3.07
2018-03-19T19:58:52.802Z,2.93
2018-03-19T20:01:21.392Z,3.00
2018-03-19T20:03:50.400Z,3.70
2018-03-19T20:06:18.487Z,3.10
2018-03-19T20:08:46.882Z,3.00
2018-03-19T20:11:14.464Z,3.23
2018-03-19T20:13:42.552Z,2.93
2018-03-19T20:16:10.479Z,3.00
2018-03-19T20:18:38.364Z,2.30
2018-03-19T20:21:06.464Z,2.77
2018-03-19T20:23:34.143Z,2.37
2018-03-19T20:26:03.359Z,2.60
2018-03-19T20:28:31.582Z,2.83
2018-03-19T20:30:59.357Z,2.70
2018-03-19T20:33:27.208Z,2.47
2018-03-19T20:35:55.385Z,2.43
2018-03-19T20:38:23.406Z,2.10
2018-03-19T20:40:51.271Z,2.30
2018-03-19T20:43:19.843Z,2.60
2018-03-19T20:45:47.551Z,2.10
2018-03-19T20:48:15.444Z,2.10
2018-03-19T20:50:44.484Z,2.73
2018-03-19T20:53:12.414Z,2.80
2018-03-19T20:55:40.515Z,2.17
2018-03-19T20:58:09.264Z,2.50
2018-03-19T21:00:37.034Z,2.70
2018-03-19T21:03:05.671Z,2.80
2018-03-19T21:05:33.699Z,2.60
2018-03-19T21:08:01.852Z,2.50
2018-03-19T21:10:30.391Z,2.30
2018-03-19T21:12:58.176Z,2.83
2018-03-19T21:15:26.230Z,2.20
2018-03-19T21:17:54.429Z,2.50
2018-03-19T21:20:22.276Z,2.53
2018-03-19T21:22:51.126Z,2.80
2018-03-19T21:25:19.372Z,2.47
2018-03-19T21:27:47.406Z,2.83
2018-03-19T21:30:15.803Z,2.90
2018-03-19T21:32:44.296Z,3.10
2018-03-19T21:35:13.356Z,2.00
2018-03-19T21:37:42.410Z,2.70
2018-03-19T21:40:10.488Z,2.13
2018-03-19T21:42:39.547Z,3.10
2018-03-19T21:45:07.669Z,2.30
2018-03-19T21:47:37.608Z,2.80
2018-03-19T21:50:05.331Z,1.93
2018-03-19T21:52:33.215Z,2.27
2018-03-19T21:55:01.420Z,2.60
2018-03-19T21:57:29.345Z,2.57
2018-03-19T21:59:57.828Z,2.77
2018-03-19T22:02:25.934Z,2.63
2018-03-19T22:04:54.986Z,2.57
2018-03-19T22:07:24.897Z,3.00
2018-03-19T22:09:53.109Z,3.13
2018-03-19T22:12:22.090Z,3.00
2018-03-19T22:14:52.167Z,2.63
2018-03-19T22:17:20.728Z,2.73
2018-03-19T22:19:49.518Z,3.13
2018-03-19T22:22:20.172Z,3.20
2018-03-19T22:24:51.781Z,3.20
2018-03-19T22:27:21.241Z,3.10
2018-03-19T22:29:49.913Z,3.30
2018-03-19T22:32:19.685Z,3.23
2018-03-19T22:34:47.658Z,2.70
2018-03-19T22:37:15.828Z,2.97
2018-03-19T22:39:43.850Z,3.37
2018-03-19T22:42:14.020Z,3.30
2018-03-19T22:44:43.312Z,3.53
2018-03-19T22:47:12.198Z,2.80
2018-03-19T22:49:41.509Z,3.20
2018-03-19T22:52:10.673Z,3.37
2018-03-19T22:54:39.569Z,3.20
2018-03-19T22:57:07.803Z,3.23
2018-03-19T22:59:36.587Z,3.43
2018-03-19T23:02:05.144Z,3.63
2018-03-19T23:04:33.252Z,3.40
2018-03-19T23:07:01.059Z,2.40
2018-03-19T23:09:31.898Z,3.20
2018-03-19T23:11:59.636Z,2.80
2018-03-19T23:14:27.466Z,3.17
2018-03-19T23:16:55.932Z,2.97
2018-03-19T23:19:24.348Z,3.57
2018-03-19T23:21:52.398Z,2.60
2018-03-19T23:24:20.897Z,3.40
2018-03-19T23:26:48.619Z,3.30
2018-03-19T23:29:16.916Z,3.07
2018-03-19T23:31:44.813Z,3.10
2018-03-19T23:34:12.523Z,2.93
2018-03-19T23:36:40.157Z,3.53
2018-03-19T23:39:07.912Z,3.20
2018-03-19T23:41:35.749Z,3.33
2018-03-19T23:44:04.648Z,3.00
2018-03-19T23:46:32.492Z,3.00
2018-03-19T23:49:00.305Z,3.27
2018-03-19T23:51:28.267Z,3.37
2018-03-19T23:53:56.231Z,3.10
2018-03-19T23:56:24.086Z,3.03
2018-03-19T23:58:51.765Z,3.30
